sensor_id;sensor_type;location;lat;lon;timestamp;P1;durP1;ratioP1;P2;durP2;ratioP2
12350;SDS011;6240;51.538;7.696;2022-11-14T00:01:53;5.90;;;4.97;;
12350;SDS011;6240;51.538;7.696;2022-11-14T00:04:20;5.30;;;4.80;;
12350;SDS011;6240;51.538;7.696;2022-11-14T00:06:47;5.53;;;4.30;;
12350;SDS011;6240;51.538;7.696;2022-11-14T00:09:16;5.63;;;5.00;;
12350;SDS011;6240;51.538;7.696;2022-11-14T00:11:43;5.77;;;5.10;;
12350;SDS011;6240;51.538;7.696;2022-11-14T00:14:10;6.57;;;5.10;;
12350;SDS011;6240;51.538;7.696;2022-11-14T00:16:37;7.87;;;4.93;;
12350;SDS011;6240;51.538;7.696;2022-11-14T00:19:05;5.40;;;4.87;;
12350;SDS011;6240;51.538;7.696;2022-11-14T00:21:33;5.93;;;5.10;;
12350;SDS011;6240;51.538;7.696;2022-11-14T00:24:00;6.03;;;4.97;;
12350;SDS011;6240;51.538;7.696;2022-11-14T00:26:29;5.70;;;5.13;;
12350;SDS011;6240;51.538;7.696;2022-11-14T00:28:56;6.53;;;4.97;;
12350;SDS011;6240;51.538;7.696;2022-11-14T00:31:23;5.10;;;4.60;;
12350;SDS011;6240;51.538;7.696;2022-11-14T00:33:50;5.67;;;4.40;;
12350;SDS011;6240;51.538;7.696;2022-11-14T00:36:17;5.83;;;4.70;;
12350;SDS011;6240;51.538;7.696;2022-11-14T00:38:45;6.90;;;4.87;;
12350;SDS011;6240;51.538;7.696;2022-11-14T00:41:12;6.23;;;4.97;;
12350;SDS011;6240;51.538;7.696;2022-11-14T00:43:41;5.77;;;4.70;;
12350;SDS011;6240;51.538;7.696;2022-11-14T00:46:08;5.47;;;4.83;;
12350;SDS011;6240;51.538;7.696;2022-11-14T00:48:35;4.93;;;4.43;;
12350;SDS011;6240;51.538;7.696;2022-11-14T00:51:02;5.87;;;4.83;;
12350;SDS011;6240;51.538;7.696;2022-11-14T00:53:29;6.43;;;5.03;;
12350;SDS011;6240;51.538;7.696;2022-11-14T00:55:57;7.63;;;4.93;;
12350;SDS011;6240;51.538;7.696;2022-11-14T00:58:24;5.87;;;5.27;;
12350;SDS011;6240;51.538;7.696;2022-11-14T01:00:53;5.90;;;5.30;;
12350;SDS011;6240;51.538;7.696;2022-11-14T01:03:20;6.67;;;4.90;;
12350;SDS011;6240;51.538;7.696;2022-11-14T01:05:48;6.30;;;5.50;;
12350;SDS011;6240;51.538;7.696;2022-11-14T01:08:15;6.20;;;5.03;;
12350;SDS011;6240;51.538;7.696;2022-11-14T01:10:44;5.80;;;4.80;;
12350;SDS011;6240;51.538;7.696;2022-11-14T01:13:11;5.63;;;5.03;;
12350;SDS011;6240;51.538;7.696;2022-11-14T01:15:38;5.17;;;4.60;;
12350;SDS011;6240;51.538;7.696;2022-11-14T01:18:07;5.43;;;4.93;;
12350;SDS011;6240;51.538;7.696;2022-11-14T01:20:36;6.27;;;5.40;;
12350;SDS011;6240;51.538;7.696;2022-11-14T01:23:04;6.70;;;5.20;;
12350;SDS011;6240;51.538;7.696;2022-11-14T01:25:31;5.60;;;4.77;;
12350;SDS011;6240;51.538;7.696;2022-11-14T01:27:58;5.53;;;4.90;;
12350;SDS011;6240;51.538;7.696;2022-11-14T01:30:26;5.23;;;4.37;;
12350;SDS011;6240;51.538;7.696;2022-11-14T01:32:53;6.37;;;4.83;;
12350;SDS011;6240;51.538;7.696;2022-11-14T01:35:21;5.30;;;4.67;;
12350;SDS011;6240;51.538;7.696;2022-11-14T01:37:48;5.17;;;4.47;;
12350;SDS011;6240;51.538;7.696;2022-11-14T01:40:16;6.60;;;4.73;;
12350;SDS011;6240;51.538;7.696;2022-11-14T01:48:16;5.37;;;4.87;;
12350;SDS011;6240;51.538;7.696;2022-11-14T01:50:48;5.70;;;4.90;;
12350;SDS011;6240;51.538;7.696;2022-11-14T01:53:16;8.80;;;5.47;;
12350;SDS011;6240;51.538;7.696;2022-11-14T01:55:43;5.80;;;5.23;;
12350;SDS011;6240;51.538;7.696;2022-11-14T01:58:11;6.60;;;5.20;;
12350;SDS011;6240;51.538;7.696;2022-11-14T02:00:38;5.70;;;5.10;;
12350;SDS011;6240;51.538;7.696;2022-11-14T02:03:06;6.50;;;5.20;;
12350;SDS011;6240;51.538;7.696;2022-11-14T02:05:33;5.90;;;5.30;;
12350;SDS011;6240;51.538;7.696;2022-11-14T02:08:02;7.27;;;5.30;;
12350;SDS011;6240;51.538;7.696;2022-11-14T02:10:29;7.87;;;5.57;;
12350;SDS011;6240;51.538;7.696;2022-11-14T02:12:56;8.33;;;5.70;;
12350;SDS011;6240;51.538;7.696;2022-11-14T02:15:23;5.73;;;4.90;;
12350;SDS011;6240;51.538;7.696;2022-11-14T02:17:52;5.97;;;5.00;;
12350;SDS011;6240;51.538;7.696;2022-11-14T02:20:22;5.20;;;4.70;;
12350;SDS011;6240;51.538;7.696;2022-11-14T02:22:52;6.23;;;5.20;;
12350;SDS011;6240;51.538;7.696;2022-11-14T02:25:19;6.30;;;5.23;;
12350;SDS011;6240;51.538;7.696;2022-11-14T02:27:47;5.70;;;5.10;;
12350;SDS011;6240;51.538;7.696;2022-11-14T02:30:14;5.93;;;5.00;;
12350;SDS011;6240;51.538;7.696;2022-11-14T02:32:42;7.90;;;4.73;;
12350;SDS011;6240;51.538;7.696;2022-11-14T02:35:09;7.27;;;5.43;;
12350;SDS011;6240;51.538;7.696;2022-11-14T02:37:38;7.43;;;4.93;;
12350;SDS011;6240;51.538;7.696;2022-11-14T02:40:05;7.53;;;5.00;;
12350;SDS011;6240;51.538;7.696;2022-11-14T02:42:33;6.33;;;5.17;;
12350;SDS011;6240;51.538;7.696;2022-11-14T02:45:01;5.77;;;5.00;;
12350;SDS011;6240;51.538;7.696;2022-11-14T02:47:28;5.73;;;4.90;;
12350;SDS011;6240;51.538;7.696;2022-11-14T02:49:55;5.27;;;4.77;;
12350;SDS011;6240;51.538;7.696;2022-11-14T02:52:24;6.00;;;4.63;;
12350;SDS011;6240;51.538;7.696;2022-11-14T02:54:52;6.17;;;5.20;;
12350;SDS011;6240;51.538;7.696;2022-11-14T02:57:19;5.77;;;5.00;;
12350;SDS011;6240;51.538;7.696;2022-11-14T02:59:46;5.40;;;4.90;;
12350;SDS011;6240;51.538;7.696;2022-11-14T03:02:14;10.47;;;5.60;;
12350;SDS011;6240;51.538;7.696;2022-11-14T03:04:41;8.93;;;5.97;;
12350;SDS011;6240;51.538;7.696;2022-11-14T03:07:08;6.43;;;5.57;;
12350;SDS011;6240;51.538;7.696;2022-11-14T03:09:36;7.43;;;5.53;;
12350;SDS011;6240;51.538;7.696;2022-11-14T03:12:05;6.33;;;5.70;;
12350;SDS011;6240;51.538;7.696;2022-11-14T03:14:33;7.80;;;6.27;;
12350;SDS011;6240;51.538;7.696;2022-11-14T03:17:00;8.13;;;6.53;;
12350;SDS011;6240;51.538;7.696;2022-11-14T03:19:27;6.93;;;6.23;;
12350;SDS011;6240;51.538;7.696;2022-11-14T03:21:54;6.53;;;5.80;;
12350;SDS011;6240;51.538;7.696;2022-11-14T03:24:22;7.03;;;6.00;;
12350;SDS011;6240;51.538;7.696;2022-11-14T03:26:49;8.03;;;5.50;;
12350;SDS011;6240;51.538;7.696;2022-11-14T03:29:17;7.97;;;5.43;;
12350;SDS011;6240;51.538;7.696;2022-11-14T03:31:45;7.67;;;5.73;;
12350;SDS011;6240;51.538;7.696;2022-11-14T03:34:12;7.97;;;6.23;;
12350;SDS011;6240;51.538;7.696;2022-11-14T03:36:39;7.07;;;5.80;;
12350;SDS011;6240;51.538;7.696;2022-11-14T03:39:06;7.27;;;5.83;;
12350;SDS011;6240;51.538;7.696;2022-11-14T03:41:34;6.93;;;6.13;;
12350;SDS011;6240;51.538;7.696;2022-11-14T03:44:01;7.83;;;5.83;;
12350;SDS011;6240;51.538;7.696;2022-11-14T03:46:29;7.10;;;5.57;;
12350;SDS011;6240;51.538;7.696;2022-11-14T03:48:56;8.83;;;5.63;;
12350;SDS011;6240;51.538;7.696;2022-11-14T03:51:24;6.37;;;5.23;;
12350;SDS011;6240;51.538;7.696;2022-11-14T03:53:51;5.77;;;4.90;;
12350;SDS011;6240;51.538;7.696;2022-11-14T03:56:18;6.97;;;5.47;;
12350;SDS011;6240;51.538;7.696;2022-11-14T03:58:45;6.63;;;5.93;;
12350;SDS011;6240;51.538;7.696;2022-11-14T04:01:12;5.90;;;5.30;;
12350;SDS011;6240;51.538;7.696;2022-11-14T04:03:41;7.77;;;5.93;;
12350;SDS011;6240;51.538;7.696;2022-11-14T04:06:08;6.70;;;5.63;;
12350;SDS011;6240;51.538;7.696;2022-11-14T04:08:35;6.53;;;5.60;;
12350;SDS011;6240;51.538;7.696;2022-11-14T04:11:03;6.63;;;5.80;;
12350;SDS011;6240;51.538;7.696;2022-11-14T04:13:30;7.40;;;5.57;;
12350;SDS011;6240;51.538;7.696;2022-11-14T04:15:57;6.93;;;5.47;;
12350;SDS011;6240;51.538;7.696;2022-11-14T04:18:24;6.13;;;5.53;;
12350;SDS011;6240;51.538;7.696;2022-11-14T04:20:53;6.30;;;5.67;;
12350;SDS011;6240;51.538;7.696;2022-11-14T04:23:20;7.50;;;5.43;;
12350;SDS011;6240;51.538;7.696;2022-11-14T04:25:48;7.80;;;6.30;;
12350;SDS011;6240;51.538;7.696;2022-11-14T04:28:15;6.77;;;5.43;;
12350;SDS011;6240;51.538;7.696;2022-11-14T04:30:42;5.60;;;5.03;;
12350;SDS011;6240;51.538;7.696;2022-11-14T04:33:12;7.17;;;5.83;;
12350;SDS011;6240;51.538;7.696;2022-11-14T04:35:40;5.80;;;5.20;;
12350;SDS011;6240;51.538;7.696;2022-11-14T04:38:09;5.70;;;5.13;;
12350;SDS011;6240;51.538;7.696;2022-11-14T04:40:36;6.47;;;5.77;;
12350;SDS011;6240;51.538;7.696;2022-11-14T04:43:04;6.70;;;5.50;;
12350;SDS011;6240;51.538;7.696;2022-11-14T04:45:31;7.03;;;5.90;;
12350;SDS011;6240;51.538;7.696;2022-11-14T04:47:58;8.47;;;5.77;;
12350;SDS011;6240;51.538;7.696;2022-11-14T04:50:25;7.23;;;6.00;;
12350;SDS011;6240;51.538;7.696;2022-11-14T04:52:52;6.97;;;5.47;;
12350;SDS011;6240;51.538;7.696;2022-11-14T04:55:21;6.27;;;5.10;;
12350;SDS011;6240;51.538;7.696;2022-11-14T04:57:52;6.20;;;5.60;;
12350;SDS011;6240;51.538;7.696;2022-11-14T05:00:20;7.23;;;5.47;;
12350;SDS011;6240;51.538;7.696;2022-11-14T05:02:47;9.40;;;5.30;;
12350;SDS011;6240;51.538;7.696;2022-11-14T05:05:14;8.50;;;5.33;;
12350;SDS011;6240;51.538;7.696;2022-11-14T05:07:42;9.63;;;5.63;;
12350;SDS011;6240;51.538;7.696;2022-11-14T05:10:09;8.63;;;5.10;;
12350;SDS011;6240;51.538;7.696;2022-11-14T05:12:37;8.70;;;5.63;;
12350;SDS011;6240;51.538;7.696;2022-11-14T05:15:05;8.20;;;5.47;;
12350;SDS011;6240;51.538;7.696;2022-11-14T05:17:32;7.03;;;5.40;;
12350;SDS011;6240;51.538;7.696;2022-11-14T05:19:59;7.30;;;5.27;;
12350;SDS011;6240;51.538;7.696;2022-11-14T05:22:27;6.60;;;5.90;;
12350;SDS011;6240;51.538;7.696;2022-11-14T05:24:54;9.17;;;6.80;;
12350;SDS011;6240;51.538;7.696;2022-11-14T05:27:21;9.87;;;6.67;;
12350;SDS011;6240;51.538;7.696;2022-11-14T05:29:50;11.17;;;7.33;;
12350;SDS011;6240;51.538;7.696;2022-11-14T05:32:17;9.43;;;6.40;;
12350;SDS011;6240;51.538;7.696;2022-11-14T05:34:44;7.77;;;5.90;;
12350;SDS011;6240;51.538;7.696;2022-11-14T05:37:11;6.73;;;5.87;;
12350;SDS011;6240;51.538;7.696;2022-11-14T05:39:38;7.80;;;5.47;;
12350;SDS011;6240;51.538;7.696;2022-11-14T05:42:07;7.53;;;6.17;;
12350;SDS011;6240;51.538;7.696;2022-11-14T05:44:39;6.13;;;5.43;;
12350;SDS011;6240;51.538;7.696;2022-11-14T05:47:08;8.17;;;5.47;;
12350;SDS011;6240;51.538;7.696;2022-11-14T05:49:36;7.20;;;5.73;;
12350;SDS011;6240;51.538;7.696;2022-11-14T05:52:03;8.43;;;5.70;;
12350;SDS011;6240;51.538;7.696;2022-11-14T05:54:30;9.90;;;5.97;;
12350;SDS011;6240;51.538;7.696;2022-11-14T05:56:57;5.17;;;4.67;;
12350;SDS011;6240;51.538;7.696;2022-11-14T05:59:24;13.20;;;5.67;;
12350;SDS011;6240;51.538;7.696;2022-11-14T06:01:52;6.47;;;5.63;;
12350;SDS011;6240;51.538;7.696;2022-11-14T06:04:20;8.03;;;5.87;;
12350;SDS011;6240;51.538;7.696;2022-11-14T06:06:48;7.27;;;5.73;;
12350;SDS011;6240;51.538;7.696;2022-11-14T06:09:16;9.83;;;6.30;;
12350;SDS011;6240;51.538;7.696;2022-11-14T06:11:45;7.63;;;5.70;;
12350;SDS011;6240;51.538;7.696;2022-11-14T06:14:12;8.87;;;6.50;;
12350;SDS011;6240;51.538;7.696;2022-11-14T06:16:39;6.77;;;5.90;;
12350;SDS011;6240;51.538;7.696;2022-11-14T06:19:06;5.80;;;4.90;;
12350;SDS011;6240;51.538;7.696;2022-11-14T06:21:35;5.97;;;4.50;;
12350;SDS011;6240;51.538;7.696;2022-11-14T06:24:02;8.53;;;5.70;;
12350;SDS011;6240;51.538;7.696;2022-11-14T06:26:30;6.50;;;5.37;;
12350;SDS011;6240;51.538;7.696;2022-11-14T06:28:57;6.83;;;5.70;;
12350;SDS011;6240;51.538;7.696;2022-11-14T06:31:25;7.60;;;5.50;;
12350;SDS011;6240;51.538;7.696;2022-11-14T06:33:52;28.07;;;21.30;;
12350;SDS011;6240;51.538;7.696;2022-11-14T06:36:20;60.03;;;31.63;;
12350;SDS011;6240;51.538;7.696;2022-11-14T06:38:49;26.23;;;17.90;;
12350;SDS011;6240;51.538;7.696;2022-11-14T06:41:18;23.27;;;16.53;;
12350;SDS011;6240;51.538;7.696;2022-11-14T06:43:46;24.20;;;17.10;;
12350;SDS011;6240;51.538;7.696;2022-11-14T06:46:14;25.50;;;17.03;;
12350;SDS011;6240;51.538;7.696;2022-11-14T06:48:41;15.10;;;8.67;;
12350;SDS011;6240;51.538;7.696;2022-11-14T06:51:09;32.63;;;21.63;;
12350;SDS011;6240;51.538;7.696;2022-11-14T06:53:37;26.63;;;17.03;;
12350;SDS011;6240;51.538;7.696;2022-11-14T06:56:06;24.53;;;15.13;;
12350;SDS011;6240;51.538;7.696;2022-11-14T06:58:34;30.27;;;19.27;;
12350;SDS011;6240;51.538;7.696;2022-11-14T07:01:04;31.43;;;20.67;;
12350;SDS011;6240;51.538;7.696;2022-11-14T07:03:33;27.23;;;20.13;;
12350;SDS011;6240;51.538;7.696;2022-11-14T07:06:01;27.03;;;18.03;;
12350;SDS011;6240;51.538;7.696;2022-11-14T07:08:29;17.73;;;10.90;;
12350;SDS011;6240;51.538;7.696;2022-11-14T07:10:59;16.20;;;11.70;;
12350;SDS011;6240;51.538;7.696;2022-11-14T07:13:29;13.83;;;10.70;;
12350;SDS011;6240;51.538;7.696;2022-11-14T07:15:56;15.37;;;10.83;;
12350;SDS011;6240;51.538;7.696;2022-11-14T07:18:23;12.40;;;8.67;;
12350;SDS011;6240;51.538;7.696;2022-11-14T07:20:55;9.47;;;7.23;;
12350;SDS011;6240;51.538;7.696;2022-11-14T07:23:22;11.10;;;6.57;;
12350;SDS011;6240;51.538;7.696;2022-11-14T07:25:49;12.37;;;7.50;;
12350;SDS011;6240;51.538;7.696;2022-11-14T07:28:17;11.03;;;7.07;;
12350;SDS011;6240;51.538;7.696;2022-11-14T07:30:46;42.20;;;20.80;;
12350;SDS011;6240;51.538;7.696;2022-11-14T07:33:13;34.83;;;18.20;;
12350;SDS011;6240;51.538;7.696;2022-11-14T07:35:40;42.70;;;22.83;;
12350;SDS011;6240;51.538;7.696;2022-11-14T07:38:07;22.87;;;14.13;;
12350;SDS011;6240;51.538;7.696;2022-11-14T07:40:35;20.47;;;12.17;;
12350;SDS011;6240;51.538;7.696;2022-11-14T07:43:02;20.90;;;12.77;;
12350;SDS011;6240;51.538;7.696;2022-11-14T07:45:29;20.17;;;12.60;;
12350;SDS011;6240;51.538;7.696;2022-11-14T07:47:58;17.27;;;12.20;;
12350;SDS011;6240;51.538;7.696;2022-11-14T07:50:26;14.33;;;10.00;;
12350;SDS011;6240;51.538;7.696;2022-11-14T07:52:54;16.37;;;10.77;;
12350;SDS011;6240;51.538;7.696;2022-11-14T07:55:22;13.40;;;9.30;;
12350;SDS011;6240;51.538;7.696;2022-11-14T07:57:51;11.80;;;9.20;;
12350;SDS011;6240;51.538;7.696;2022-11-14T08:00:18;10.47;;;7.23;;
12350;SDS011;6240;51.538;7.696;2022-11-14T08:02:45;11.87;;;8.77;;
12350;SDS011;6240;51.538;7.696;2022-11-14T08:05:15;9.63;;;7.87;;
12350;SDS011;6240;51.538;7.696;2022-11-14T08:07:43;11.40;;;7.90;;
12350;SDS011;6240;51.538;7.696;2022-11-14T08:10:12;8.80;;;7.33;;
12350;SDS011;6240;51.538;7.696;2022-11-14T08:12:46;9.10;;;7.67;;
12350;SDS011;6240;51.538;7.696;2022-11-14T08:15:19;9.97;;;7.97;;
12350;SDS011;6240;51.538;7.696;2022-11-14T08:17:49;15.83;;;8.07;;
12350;SDS011;6240;51.538;7.696;2022-11-14T08:20:17;11.43;;;8.27;;
12350;SDS011;6240;51.538;7.696;2022-11-14T08:22:45;10.63;;;8.13;;
12350;SDS011;6240;51.538;7.696;2022-11-14T08:25:12;13.30;;;9.03;;
12350;SDS011;6240;51.538;7.696;2022-11-14T08:27:39;13.57;;;9.20;;
12350;SDS011;6240;51.538;7.696;2022-11-14T08:30:13;9.23;;;8.20;;
12350;SDS011;6240;51.538;7.696;2022-11-14T08:32:40;12.63;;;8.17;;
12350;SDS011;6240;51.538;7.696;2022-11-14T08:35:07;11.00;;;8.87;;
12350;SDS011;6240;51.538;7.696;2022-11-14T08:37:35;11.40;;;8.30;;
12350;SDS011;6240;51.538;7.696;2022-11-14T08:40:03;11.70;;;8.07;;
12350;SDS011;6240;51.538;7.696;2022-11-14T08:42:31;13.90;;;9.23;;
12350;SDS011;6240;51.538;7.696;2022-11-14T08:44:58;11.23;;;8.50;;
12350;SDS011;6240;51.538;7.696;2022-11-14T08:47:27;10.73;;;8.37;;
12350;SDS011;6240;51.538;7.696;2022-11-14T08:50:06;12.40;;;8.80;;
12350;SDS011;6240;51.538;7.696;2022-11-14T08:52:42;11.00;;;8.33;;
12350;SDS011;6240;51.538;7.696;2022-11-14T08:55:10;12.80;;;10.03;;
12350;SDS011;6240;51.538;7.696;2022-11-14T08:57:37;11.67;;;8.87;;
12350;SDS011;6240;51.538;7.696;2022-11-14T09:00:04;10.47;;;8.87;;
12350;SDS011;6240;51.538;7.696;2022-11-14T09:02:32;14.13;;;10.20;;
12350;SDS011;6240;51.538;7.696;2022-11-14T09:05:01;12.93;;;9.43;;
12350;SDS011;6240;51.538;7.696;2022-11-14T09:07:31;9.93;;;8.27;;
12350;SDS011;6240;51.538;7.696;2022-11-14T09:10:03;11.53;;;9.03;;
12350;SDS011;6240;51.538;7.696;2022-11-14T09:12:34;9.90;;;8.13;;
12350;SDS011;6240;51.538;7.696;2022-11-14T09:15:01;10.80;;;8.70;;
12350;SDS011;6240;51.538;7.696;2022-11-14T09:17:28;12.53;;;8.83;;
12350;SDS011;6240;51.538;7.696;2022-11-14T09:19:56;12.13;;;9.57;;
12350;SDS011;6240;51.538;7.696;2022-11-14T09:22:23;10.27;;;9.03;;
12350;SDS011;6240;51.538;7.696;2022-11-14T09:24:50;11.23;;;8.87;;
12350;SDS011;6240;51.538;7.696;2022-11-14T09:27:19;12.60;;;9.97;;
12350;SDS011;6240;51.538;7.696;2022-11-14T09:29:47;13.23;;;8.70;;
12350;SDS011;6240;51.538;7.696;2022-11-14T09:32:14;10.83;;;9.40;;
12350;SDS011;6240;51.538;7.696;2022-11-14T09:34:41;11.43;;;9.60;;
12350;SDS011;6240;51.538;7.696;2022-11-14T09:37:09;11.97;;;10.50;;
12350;SDS011;6240;51.538;7.696;2022-11-14T09:39:37;14.53;;;11.43;;
12350;SDS011;6240;51.538;7.696;2022-11-14T09:42:12;13.00;;;10.33;;
12350;SDS011;6240;51.538;7.696;2022-11-14T09:44:46;13.70;;;10.40;;
12350;SDS011;6240;51.538;7.696;2022-11-14T09:47:17;11.40;;;10.03;;
12350;SDS011;6240;51.538;7.696;2022-11-14T09:49:50;13.03;;;10.27;;
12350;SDS011;6240;51.538;7.696;2022-11-14T09:52:25;13.00;;;10.93;;
12350;SDS011;6240;51.538;7.696;2022-11-14T09:54:54;12.83;;;10.33;;
12350;SDS011;6240;51.538;7.696;2022-11-14T09:57:23;13.20;;;10.37;;
12350;SDS011;6240;51.538;7.696;2022-11-14T09:59:53;13.60;;;11.33;;
12350;SDS011;6240;51.538;7.696;2022-11-14T10:02:26;14.00;;;11.20;;
12350;SDS011;6240;51.538;7.696;2022-11-14T10:05:05;14.77;;;11.90;;
12350;SDS011;6240;51.538;7.696;2022-11-14T10:07:42;14.07;;;11.40;;
12350;SDS011;6240;51.538;7.696;2022-11-14T10:10:19;16.40;;;11.67;;
12350;SDS011;6240;51.538;7.696;2022-11-14T10:12:52;15.63;;;12.47;;
12350;SDS011;6240;51.538;7.696;2022-11-14T10:15:24;14.60;;;11.83;;
12350;SDS011;6240;51.538;7.696;2022-11-14T10:18:03;17.20;;;12.70;;
12350;SDS011;6240;51.538;7.696;2022-11-14T10:20:33;16.20;;;12.13;;
12350;SDS011;6240;51.538;7.696;2022-11-14T10:23:05;13.90;;;12.13;;
12350;SDS011;6240;51.538;7.696;2022-11-14T10:25:37;15.53;;;13.60;;
12350;SDS011;6240;51.538;7.696;2022-11-14T10:28:13;14.93;;;12.07;;
12350;SDS011;6240;51.538;7.696;2022-11-14T10:30:48;14.90;;;11.70;;
12350;SDS011;6240;51.538;7.696;2022-11-14T10:33:24;15.43;;;12.07;;
12350;SDS011;6240;51.538;7.696;2022-11-14T10:35:56;14.13;;;11.37;;
12350;SDS011;6240;51.538;7.696;2022-11-14T10:38:30;15.27;;;11.80;;
12350;SDS011;6240;51.538;7.696;2022-11-14T10:41:01;13.97;;;11.50;;
12350;SDS011;6240;51.538;7.696;2022-11-14T10:43:32;13.57;;;10.80;;
12350;SDS011;6240;51.538;7.696;2022-11-14T10:46:02;13.90;;;10.60;;
12350;SDS011;6240;51.538;7.696;2022-11-14T10:48:31;13.10;;;11.00;;
12350;SDS011;6240;51.538;7.696;2022-11-14T10:51:00;13.57;;;11.80;;
12350;SDS011;6240;51.538;7.696;2022-11-14T10:53:33;14.70;;;11.67;;
12350;SDS011;6240;51.538;7.696;2022-11-14T10:56:03;14.17;;;10.77;;
12350;SDS011;6240;51.538;7.696;2022-11-14T10:58:34;12.63;;;10.23;;
12350;SDS011;6240;51.538;7.696;2022-11-14T11:03:46;12.20;;;9.73;;
12350;SDS011;6240;51.538;7.696;2022-11-14T11:06:24;11.80;;;9.87;;
12350;SDS011;6240;51.538;7.696;2022-11-14T11:08:53;12.33;;;9.93;;
12350;SDS011;6240;51.538;7.696;2022-11-14T11:11:38;14.50;;;10.23;;
12350;SDS011;6240;51.538;7.696;2022-11-14T11:14:13;13.07;;;9.80;;
12350;SDS011;6240;51.538;7.696;2022-11-14T11:16:42;13.63;;;10.43;;
12350;SDS011;6240;51.538;7.696;2022-11-14T11:19:14;13.70;;;10.40;;
12350;SDS011;6240;51.538;7.696;2022-11-14T11:21:49;12.83;;;9.87;;
12350;SDS011;6240;51.538;7.696;2022-11-14T11:24:32;12.17;;;10.00;;
12350;SDS011;6240;51.538;7.696;2022-11-14T11:27:13;14.23;;;9.70;;
12350;SDS011;6240;51.538;7.696;2022-11-14T11:29:40;13.57;;;9.57;;
12350;SDS011;6240;51.538;7.696;2022-11-14T11:32:07;13.43;;;10.27;;
12350;SDS011;6240;51.538;7.696;2022-11-14T11:34:36;11.97;;;9.17;;
12350;SDS011;6240;51.538;7.696;2022-11-14T11:37:04;12.87;;;9.50;;
12350;SDS011;6240;51.538;7.696;2022-11-14T11:39:36;12.20;;;9.30;;
12350;SDS011;6240;51.538;7.696;2022-11-14T11:42:07;12.70;;;8.90;;
12350;SDS011;6240;51.538;7.696;2022-11-14T11:44:36;11.67;;;9.40;;
12350;SDS011;6240;51.538;7.696;2022-11-14T11:47:07;10.23;;;8.90;;
12350;SDS011;6240;51.538;7.696;2022-11-14T11:49:42;11.43;;;9.73;;
12350;SDS011;6240;51.538;7.696;2022-11-14T11:52:11;10.63;;;9.07;;
12350;SDS011;6240;51.538;7.696;2022-11-14T11:54:43;11.27;;;9.70;;
12350;SDS011;6240;51.538;7.696;2022-11-14T11:57:14;11.63;;;9.20;;
12350;SDS011;6240;51.538;7.696;2022-11-14T11:59:44;12.30;;;9.10;;
12350;SDS011;6240;51.538;7.696;2022-11-14T12:02:16;11.37;;;9.23;;
12350;SDS011;6240;51.538;7.696;2022-11-14T12:04:48;10.53;;;8.40;;
12350;SDS011;6240;51.538;7.696;2022-11-14T12:07:16;16.33;;;8.90;;
12350;SDS011;6240;51.538;7.696;2022-11-14T12:09:45;11.20;;;8.70;;
12350;SDS011;6240;51.538;7.696;2022-11-14T12:12:17;10.13;;;8.33;;
12350;SDS011;6240;51.538;7.696;2022-11-14T12:14:54;10.87;;;8.63;;
12350;SDS011;6240;51.538;7.696;2022-11-14T12:20:15;11.37;;;9.20;;
12350;SDS011;6240;51.538;7.696;2022-11-14T12:22:49;9.73;;;8.00;;
12350;SDS011;6240;51.538;7.696;2022-11-14T12:30:52;10.97;;;8.27;;
12350;SDS011;6240;51.538;7.696;2022-11-14T12:33:25;12.70;;;8.70;;
12350;SDS011;6240;51.538;7.696;2022-11-14T12:35:56;10.53;;;7.83;;
12350;SDS011;6240;51.538;7.696;2022-11-14T12:38:31;12.40;;;8.10;;
12350;SDS011;6240;51.538;7.696;2022-11-14T12:41:00;10.40;;;8.23;;
12350;SDS011;6240;51.538;7.696;2022-11-14T12:43:32;11.80;;;7.97;;
12350;SDS011;6240;51.538;7.696;2022-11-14T12:46:02;14.23;;;8.53;;
12350;SDS011;6240;51.538;7.696;2022-11-14T12:48:34;11.17;;;8.07;;
12350;SDS011;6240;51.538;7.696;2022-11-14T12:51:04;11.53;;;7.57;;
12350;SDS011;6240;51.538;7.696;2022-11-14T12:53:38;9.30;;;7.37;;
12350;SDS011;6240;51.538;7.696;2022-11-14T12:56:18;12.07;;;7.60;;
12350;SDS011;6240;51.538;7.696;2022-11-14T13:01:37;11.03;;;8.13;;
12350;SDS011;6240;51.538;7.696;2022-11-14T13:04:15;10.60;;;8.00;;
12350;SDS011;6240;51.538;7.696;2022-11-14T13:06:48;9.90;;;8.67;;
12350;SDS011;6240;51.538;7.696;2022-11-14T13:18:22;11.27;;;9.47;;
12350;SDS011;6240;51.538;7.696;2022-11-14T13:21:19;9.43;;;8.40;;
12350;SDS011;6240;51.538;7.696;2022-11-14T13:24:06;9.57;;;7.20;;
12350;SDS011;6240;51.538;7.696;2022-11-14T13:26:40;9.97;;;6.97;;
12350;SDS011;6240;51.538;7.696;2022-11-14T13:31:53;8.00;;;6.40;;
12350;SDS011;6240;51.538;7.696;2022-11-14T13:34:28;7.73;;;6.37;;
12350;SDS011;6240;51.538;7.696;2022-11-14T13:36:57;8.37;;;6.50;;
12350;SDS011;6240;51.538;7.696;2022-11-14T13:39:32;9.07;;;6.17;;
12350;SDS011;6240;51.538;7.696;2022-11-14T13:42:11;9.23;;;7.43;;
12350;SDS011;6240;51.538;7.696;2022-11-14T13:44:59;10.20;;;6.77;;
12350;SDS011;6240;51.538;7.696;2022-11-14T13:47:39;7.53;;;6.50;;
12350;SDS011;6240;51.538;7.696;2022-11-14T13:50:09;7.43;;;6.33;;
12350;SDS011;6240;51.538;7.696;2022-11-14T13:52:39;6.73;;;6.00;;
12350;SDS011;6240;51.538;7.696;2022-11-14T13:55:15;7.40;;;6.20;;
12350;SDS011;6240;51.538;7.696;2022-11-14T13:57:44;8.43;;;5.97;;
12350;SDS011;6240;51.538;7.696;2022-11-14T14:00:16;8.80;;;7.07;;
12350;SDS011;6240;51.538;7.696;2022-11-14T14:02:50;8.10;;;6.87;;
12350;SDS011;6240;51.538;7.696;2022-11-14T14:05:23;8.97;;;6.83;;
12350;SDS011;6240;51.538;7.696;2022-11-14T14:08:00;8.93;;;6.90;;
12350;SDS011;6240;51.538;7.696;2022-11-14T14:10:33;9.40;;;7.00;;
12350;SDS011;6240;51.538;7.696;2022-11-14T14:13:06;7.03;;;6.33;;
12350;SDS011;6240;51.538;7.696;2022-11-14T14:15:40;9.73;;;7.10;;
12350;SDS011;6240;51.538;7.696;2022-11-14T14:18:12;9.23;;;6.73;;
12350;SDS011;6240;51.538;7.696;2022-11-14T14:20:45;6.80;;;5.90;;
12350;SDS011;6240;51.538;7.696;2022-11-14T14:23:18;8.50;;;6.80;;
12350;SDS011;6240;51.538;7.696;2022-11-14T14:25:53;9.33;;;7.50;;
12350;SDS011;6240;51.538;7.696;2022-11-14T14:28:25;13.17;;;8.77;;
12350;SDS011;6240;51.538;7.696;2022-11-14T14:31:00;9.47;;;6.80;;
12350;SDS011;6240;51.538;7.696;2022-11-14T14:33:28;15.27;;;11.90;;
12350;SDS011;6240;51.538;7.696;2022-11-14T14:36:14;11.10;;;7.10;;
12350;SDS011;6240;51.538;7.696;2022-11-14T14:38:42;10.13;;;7.70;;
12350;SDS011;6240;51.538;7.696;2022-11-14T14:41:12;22.47;;;15.73;;
12350;SDS011;6240;51.538;7.696;2022-11-14T14:43:48;16.83;;;12.57;;
12350;SDS011;6240;51.538;7.696;2022-11-14T14:46:25;8.47;;;7.53;;
12350;SDS011;6240;51.538;7.696;2022-11-14T14:49:01;10.70;;;7.87;;
12350;SDS011;6240;51.538;7.696;2022-11-14T14:51:32;15.17;;;10.40;;
12350;SDS011;6240;51.538;7.696;2022-11-14T14:54:05;13.07;;;9.07;;
12350;SDS011;6240;51.538;7.696;2022-11-14T14:56:37;10.47;;;7.97;;
12350;SDS011;6240;51.538;7.696;2022-11-14T14:59:16;10.43;;;7.50;;
12350;SDS011;6240;51.538;7.696;2022-11-14T15:01:43;13.00;;;8.03;;
12350;SDS011;6240;51.538;7.696;2022-11-14T15:04:12;7.63;;;6.60;;
12350;SDS011;6240;51.538;7.696;2022-11-14T15:06:43;9.43;;;6.67;;
12350;SDS011;6240;51.538;7.696;2022-11-14T15:09:12;10.53;;;7.10;;
12350;SDS011;6240;51.538;7.696;2022-11-14T15:11:43;7.73;;;6.37;;
12350;SDS011;6240;51.538;7.696;2022-11-14T15:14:12;8.73;;;6.77;;
12350;SDS011;6240;51.538;7.696;2022-11-14T15:16:41;7.47;;;6.63;;
12350;SDS011;6240;51.538;7.696;2022-11-14T15:19:09;6.87;;;6.13;;
12350;SDS011;6240;51.538;7.696;2022-11-14T15:21:38;8.17;;;6.50;;
12350;SDS011;6240;51.538;7.696;2022-11-14T15:24:12;7.77;;;6.10;;
12350;SDS011;6240;51.538;7.696;2022-11-14T15:26:43;7.80;;;6.53;;
12350;SDS011;6240;51.538;7.696;2022-11-14T15:29:15;7.83;;;6.27;;
12350;SDS011;6240;51.538;7.696;2022-11-14T15:31:44;8.83;;;6.97;;
12350;SDS011;6240;51.538;7.696;2022-11-14T15:34:21;11.00;;;7.50;;
12350;SDS011;6240;51.538;7.696;2022-11-14T15:39:50;7.80;;;6.87;;
12350;SDS011;6240;51.538;7.696;2022-11-14T15:42:19;8.17;;;6.70;;